sensor_id;sensor_type;location;lat;lon;timestamp;P1;durP1;ratioP1;P2;durP2;ratioP2
58342;SDS011;44150;42.602;23.398;2024-02-23T00:02:04;1.58;;;1.58;;
58342;SDS011;44150;42.602;23.398;2024-02-23T00:04:29;1.60;;;1.60;;
58342;SDS011;44150;42.602;23.398;2024-02-23T00:06:55;1.90;;;1.90;;
58342;SDS011;44150;42.602;23.398;2024-02-23T00:09:21;1.70;;;1.70;;
58342;SDS011;44150;42.602;23.398;2024-02-23T00:11:46;1.90;;;1.90;;
58342;SDS011;44150;42.602;23.398;2024-02-23T00:14:14;1.70;;;1.70;;
58342;SDS011;44150;42.602;23.398;2024-02-23T00:16:41;1.70;;;1.70;;
58342;SDS011;44150;42.602;23.398;2024-02-23T00:19:07;1.77;;;1.60;;
58342;SDS011;44150;42.602;23.398;2024-02-23T00:21:34;1.70;;;1.70;;
58342;SDS011;44150;42.602;23.398;2024-02-23T00:24:00;1.70;;;1.70;;
58342;SDS011;44150;42.602;23.398;2024-02-23T00:26:26;1.75;;;1.73;;
58342;SDS011;44150;42.602;23.398;2024-02-23T00:28:53;1.70;;;1.70;;
58342;SDS011;44150;42.602;23.398;2024-02-23T00:31:18;1.83;;;1.83;;
58342;SDS011;44150;42.602;23.398;2024-02-23T00:33:43;1.65;;;1.65;;
58342;SDS011;44150;42.602;23.398;2024-02-23T00:36:09;1.90;;;1.90;;
58342;SDS011;44150;42.602;23.398;2024-02-23T00:38:34;1.73;;;1.73;;
58342;SDS011;44150;42.602;23.398;2024-02-23T00:40:59;1.65;;;1.65;;
58342;SDS011;44150;42.602;23.398;2024-02-23T00:43:25;1.50;;;1.50;;
58342;SDS011;44150;42.602;23.398;2024-02-23T00:45:50;1.60;;;1.60;;
58342;SDS011;44150;42.602;23.398;2024-02-23T00:48:16;1.73;;;1.73;;
58342;SDS011;44150;42.602;23.398;2024-02-23T00:50:41;1.58;;;1.58;;
58342;SDS011;44150;42.602;23.398;2024-02-23T00:53:06;1.80;;;1.80;;
58342;SDS011;44150;42.602;23.398;2024-02-23T00:55:32;1.58;;;1.58;;
58342;SDS011;44150;42.602;23.398;2024-02-23T00:57:57;1.25;;;1.25;;
58342;SDS011;44150;42.602;23.398;2024-02-23T01:00:23;1.60;;;1.60;;
58342;SDS011;44150;42.602;23.398;2024-02-23T01:02:49;1.60;;;1.60;;
58342;SDS011;44150;42.602;23.398;2024-02-23T01:05:14;1.80;;;1.80;;
58342;SDS011;44150;42.602;23.398;2024-02-23T01:07:40;1.90;;;1.90;;
58342;SDS011;44150;42.602;23.398;2024-02-23T01:10:05;1.45;;;1.45;;
58342;SDS011;44150;42.602;23.398;2024-02-23T01:12:31;1.55;;;1.55;;
58342;SDS011;44150;42.602;23.398;2024-02-23T01:14:56;1.80;;;1.70;;
58342;SDS011;44150;42.602;23.398;2024-02-23T01:17:22;1.67;;;1.67;;
58342;SDS011;44150;42.602;23.398;2024-02-23T01:19:47;1.80;;;1.80;;
58342;SDS011;44150;42.602;23.398;2024-02-23T01:22:12;1.80;;;1.75;;
58342;SDS011;44150;42.602;23.398;2024-02-23T01:24:39;1.60;;;1.60;;
58342;SDS011;44150;42.602;23.398;2024-02-23T01:27:05;1.70;;;1.70;;
58342;SDS011;44150;42.602;23.398;2024-02-23T01:29:30;1.63;;;1.63;;
58342;SDS011;44150;42.602;23.398;2024-02-23T01:31:56;1.50;;;1.50;;
58342;SDS011;44150;42.602;23.398;2024-02-23T01:34:21;1.90;;;1.80;;
58342;SDS011;44150;42.602;23.398;2024-02-23T01:36:47;1.83;;;1.83;;
58342;SDS011;44150;42.602;23.398;2024-02-23T01:39:12;1.92;;;1.83;;
58342;SDS011;44150;42.602;23.398;2024-02-23T01:41:38;1.67;;;1.67;;
58342;SDS011;44150;42.602;23.398;2024-02-23T01:44:04;1.67;;;1.67;;
58342;SDS011;44150;42.602;23.398;2024-02-23T01:46:30;1.67;;;1.67;;
58342;SDS011;44150;42.602;23.398;2024-02-23T01:48:56;1.70;;;1.70;;
58342;SDS011;44150;42.602;23.398;2024-02-23T01:51:22;1.55;;;1.55;;
58342;SDS011;44150;42.602;23.398;2024-02-23T01:53:49;1.70;;;1.70;;
58342;SDS011;44150;42.602;23.398;2024-02-23T01:56:15;1.70;;;1.70;;
58342;SDS011;44150;42.602;23.398;2024-02-23T01:58:45;1.45;;;1.45;;
58342;SDS011;44150;42.602;23.398;2024-02-23T02:01:11;1.50;;;1.50;;
58342;SDS011;44150;42.602;23.398;2024-02-23T02:03:38;1.63;;;1.63;;
58342;SDS011;44150;42.602;23.398;2024-02-23T02:06:04;1.70;;;1.70;;
58342;SDS011;44150;42.602;23.398;2024-02-23T02:08:31;1.58;;;1.58;;
58342;SDS011;44150;42.602;23.398;2024-02-23T02:11:00;1.65;;;1.65;;
58342;SDS011;44150;42.602;23.398;2024-02-23T02:13:28;1.85;;;1.85;;
58342;SDS011;44150;42.602;23.398;2024-02-23T02:15:57;1.48;;;1.48;;
58342;SDS011;44150;42.602;23.398;2024-02-23T02:18:25;1.70;;;1.70;;
58342;SDS011;44150;42.602;23.398;2024-02-23T02:20:51;1.58;;;1.58;;
58342;SDS011;44150;42.602;23.398;2024-02-23T02:23:19;1.58;;;1.58;;
58342;SDS011;44150;42.602;23.398;2024-02-23T02:25:45;1.50;;;1.50;;
58342;SDS011;44150;42.602;23.398;2024-02-23T02:28:10;1.55;;;1.55;;
58342;SDS011;44150;42.602;23.398;2024-02-23T02:30:36;1.40;;;1.40;;
58342;SDS011;44150;42.602;23.398;2024-02-23T02:33:02;1.50;;;1.50;;
58342;SDS011;44150;42.602;23.398;2024-02-23T02:35:30;1.70;;;1.70;;
58342;SDS011;44150;42.602;23.398;2024-02-23T02:37:59;1.60;;;1.60;;
58342;SDS011;44150;42.602;23.398;2024-02-23T02:40:24;2.10;;;2.00;;
58342;SDS011;44150;42.602;23.398;2024-02-23T02:42:49;1.33;;;1.33;;
58342;SDS011;44150;42.602;23.398;2024-02-23T02:45:15;1.80;;;1.70;;
58342;SDS011;44150;42.602;23.398;2024-02-23T02:47:41;1.50;;;1.50;;
58342;SDS011;44150;42.602;23.398;2024-02-23T02:50:06;1.50;;;1.50;;
58342;SDS011;44150;42.602;23.398;2024-02-23T02:52:33;1.60;;;1.60;;
58342;SDS011;44150;42.602;23.398;2024-02-23T02:54:58;1.40;;;1.40;;
58342;SDS011;44150;42.602;23.398;2024-02-23T02:57:24;1.38;;;1.38;;
58342;SDS011;44150;42.602;23.398;2024-02-23T02:59:49;1.60;;;1.60;;
58342;SDS011;44150;42.602;23.398;2024-02-23T03:02:15;1.52;;;1.52;;
58342;SDS011;44150;42.602;23.398;2024-02-23T03:04:49;1.77;;;1.67;;
58342;SDS011;44150;42.602;23.398;2024-02-23T03:07:14;1.25;;;1.25;;
58342;SDS011;44150;42.602;23.398;2024-02-23T03:09:40;1.70;;;1.60;;
58342;SDS011;44150;42.602;23.398;2024-02-23T03:12:06;1.80;;;1.80;;
58342;SDS011;44150;42.602;23.398;2024-02-23T03:14:31;1.63;;;1.63;;
58342;SDS011;44150;42.602;23.398;2024-02-23T03:16:58;1.42;;;1.42;;
58342;SDS011;44150;42.602;23.398;2024-02-23T03:19:24;1.40;;;1.40;;
58342;SDS011;44150;42.602;23.398;2024-02-23T03:21:50;1.40;;;1.40;;
58342;SDS011;44150;42.602;23.398;2024-02-23T03:24:17;1.50;;;1.50;;
58342;SDS011;44150;42.602;23.398;2024-02-23T03:26:42;1.60;;;1.60;;
58342;SDS011;44150;42.602;23.398;2024-02-23T03:29:09;1.55;;;1.55;;
58342;SDS011;44150;42.602;23.398;2024-02-23T03:31:34;1.75;;;1.75;;
58342;SDS011;44150;42.602;23.398;2024-02-23T03:34:00;1.40;;;1.40;;
58342;SDS011;44150;42.602;23.398;2024-02-23T03:36:25;1.45;;;1.45;;
58342;SDS011;44150;42.602;23.398;2024-02-23T03:38:51;1.40;;;1.40;;
58342;SDS011;44150;42.602;23.398;2024-02-23T03:41:16;1.50;;;1.50;;
58342;SDS011;44150;42.602;23.398;2024-02-23T03:43:42;1.50;;;1.50;;
58342;SDS011;44150;42.602;23.398;2024-02-23T03:46:07;1.30;;;1.30;;
58342;SDS011;44150;42.602;23.398;2024-02-23T03:48:33;1.50;;;1.50;;
58342;SDS011;44150;42.602;23.398;2024-02-23T03:51:02;1.63;;;1.63;;
58342;SDS011;44150;42.602;23.398;2024-02-23T03:53:30;1.38;;;1.38;;
58342;SDS011;44150;42.602;23.398;2024-02-23T03:55:56;1.98;;;1.63;;
58342;SDS011;44150;42.602;23.398;2024-02-23T03:58:22;1.30;;;1.30;;
58342;SDS011;44150;42.602;23.398;2024-02-23T04:00:47;1.45;;;1.45;;
58342;SDS011;44150;42.602;23.398;2024-02-23T04:03:13;1.50;;;1.50;;
58342;SDS011;44150;42.602;23.398;2024-02-23T04:05:38;1.40;;;1.40;;
58342;SDS011;44150;42.602;23.398;2024-02-23T04:08:03;1.60;;;1.60;;
58342;SDS011;44150;42.602;23.398;2024-02-23T04:10:29;1.55;;;1.55;;
58342;SDS011;44150;42.602;23.398;2024-02-23T04:12:54;1.42;;;1.42;;
58342;SDS011;44150;42.602;23.398;2024-02-23T04:15:20;1.63;;;1.63;;
58342;SDS011;44150;42.602;23.398;2024-02-23T04:17:46;1.50;;;1.50;;
58342;SDS011;44150;42.602;23.398;2024-02-23T04:20:11;1.60;;;1.50;;
58342;SDS011;44150;42.602;23.398;2024-02-23T04:22:37;1.63;;;1.63;;
58342;SDS011;44150;42.602;23.398;2024-02-23T04:25:03;1.30;;;1.30;;
58342;SDS011;44150;42.602;23.398;2024-02-23T04:27:30;1.40;;;1.40;;
58342;SDS011;44150;42.602;23.398;2024-02-23T04:29:55;1.70;;;1.70;;
58342;SDS011;44150;42.602;23.398;2024-02-23T04:32:21;1.40;;;1.40;;
58342;SDS011;44150;42.602;23.398;2024-02-23T04:34:46;1.60;;;1.60;;
58342;SDS011;44150;42.602;23.398;2024-02-23T04:37:12;1.30;;;1.30;;
58342;SDS011;44150;42.602;23.398;2024-02-23T04:39:37;1.40;;;1.40;;
58342;SDS011;44150;42.602;23.398;2024-02-23T04:42:03;1.40;;;1.40;;
58342;SDS011;44150;42.602;23.398;2024-02-23T04:44:29;1.60;;;1.60;;
58342;SDS011;44150;42.602;23.398;2024-02-23T04:46:54;1.48;;;1.48;;
58342;SDS011;44150;42.602;23.398;2024-02-23T04:49:20;1.30;;;1.30;;
58342;SDS011;44150;42.602;23.398;2024-02-23T04:51:45;1.40;;;1.40;;
58342;SDS011;44150;42.602;23.398;2024-02-23T04:54:11;1.45;;;1.45;;
58342;SDS011;44150;42.602;23.398;2024-02-23T04:56:36;1.70;;;1.70;;
58342;SDS011;44150;42.602;23.398;2024-02-23T04:59:02;1.40;;;1.40;;
58342;SDS011;44150;42.602;23.398;2024-02-23T05:01:28;1.30;;;1.30;;
58342;SDS011;44150;42.602;23.398;2024-02-23T05:03:53;1.75;;;1.67;;
58342;SDS011;44150;42.602;23.398;2024-02-23T05:06:19;1.50;;;1.40;;
58342;SDS011;44150;42.602;23.398;2024-02-23T05:08:44;1.50;;;1.40;;
58342;SDS011;44150;42.602;23.398;2024-02-23T05:11:09;1.63;;;1.45;;
58342;SDS011;44150;42.602;23.398;2024-02-23T05:13:35;1.77;;;1.60;;
58342;SDS011;44150;42.602;23.398;2024-02-23T05:16:01;1.40;;;1.40;;
58342;SDS011;44150;42.602;23.398;2024-02-23T05:18:27;1.40;;;1.40;;
58342;SDS011;44150;42.602;23.398;2024-02-23T05:20:52;1.85;;;1.75;;
58342;SDS011;44150;42.602;23.398;2024-02-23T05:23:18;1.70;;;1.60;;
58342;SDS011;44150;42.602;23.398;2024-02-23T05:25:43;1.70;;;1.70;;
58342;SDS011;44150;42.602;23.398;2024-02-23T05:28:09;1.65;;;1.65;;
58342;SDS011;44150;42.602;23.398;2024-02-23T05:30:34;1.98;;;1.98;;
58342;SDS011;44150;42.602;23.398;2024-02-23T05:32:59;1.83;;;1.83;;
58342;SDS011;44150;42.602;23.398;2024-02-23T05:35:28;1.77;;;1.77;;
58342;SDS011;44150;42.602;23.398;2024-02-23T05:37:53;2.00;;;1.90;;
58342;SDS011;44150;42.602;23.398;2024-02-23T05:40:20;2.20;;;2.10;;
58342;SDS011;44150;42.602;23.398;2024-02-23T05:42:46;1.80;;;1.80;;
58342;SDS011;44150;42.602;23.398;2024-02-23T05:45:11;2.33;;;2.30;;
58342;SDS011;44150;42.602;23.398;2024-02-23T05:47:37;2.00;;;2.00;;
58342;SDS011;44150;42.602;23.398;2024-02-23T05:50:04;2.30;;;2.30;;
58342;SDS011;44150;42.602;23.398;2024-02-23T05:52:33;2.13;;;2.03;;
58342;SDS011;44150;42.602;23.398;2024-02-23T05:54:59;1.92;;;1.92;;
58342;SDS011;44150;42.602;23.398;2024-02-23T05:57:28;2.10;;;2.10;;
58342;SDS011;44150;42.602;23.398;2024-02-23T05:59:54;2.20;;;2.20;;
58342;SDS011;44150;42.602;23.398;2024-02-23T06:02:23;2.42;;;2.40;;
58342;SDS011;44150;42.602;23.398;2024-02-23T06:04:48;2.60;;;2.50;;
58342;SDS011;44150;42.602;23.398;2024-02-23T06:07:14;2.08;;;2.08;;
58342;SDS011;44150;42.602;23.398;2024-02-23T06:09:42;2.25;;;2.25;;
58342;SDS011;44150;42.602;23.398;2024-02-23T06:12:08;2.50;;;2.40;;
58342;SDS011;44150;42.602;23.398;2024-02-23T06:14:35;2.78;;;2.67;;
58342;SDS011;44150;42.602;23.398;2024-02-23T06:17:00;2.50;;;2.40;;
58342;SDS011;44150;42.602;23.398;2024-02-23T06:19:26;2.42;;;2.33;;
58342;SDS011;44150;42.602;23.398;2024-02-23T06:21:51;2.58;;;2.47;;
58342;SDS011;44150;42.602;23.398;2024-02-23T06:24:17;2.42;;;2.33;;
58342;SDS011;44150;42.602;23.398;2024-02-23T06:26:43;2.20;;;2.20;;
58342;SDS011;44150;42.602;23.398;2024-02-23T06:29:08;2.65;;;2.55;;
58342;SDS011;44150;42.602;23.398;2024-02-23T06:31:38;2.60;;;2.50;;
58342;SDS011;44150;42.602;23.398;2024-02-23T06:34:07;3.03;;;2.92;;
58342;SDS011;44150;42.602;23.398;2024-02-23T06:36:33;2.63;;;2.53;;
58342;SDS011;44150;42.602;23.398;2024-02-23T06:38:59;2.70;;;2.60;;
58342;SDS011;44150;42.602;23.398;2024-02-23T06:41:24;2.65;;;2.55;;
58342;SDS011;44150;42.602;23.398;2024-02-23T06:43:49;2.80;;;2.70;;
58342;SDS011;44150;42.602;23.398;2024-02-23T06:46:18;3.15;;;3.05;;
58342;SDS011;44150;42.602;23.398;2024-02-23T06:48:45;3.42;;;3.28;;
58342;SDS011;44150;42.602;23.398;2024-02-23T06:51:10;2.80;;;2.70;;
58342;SDS011;44150;42.602;23.398;2024-02-23T06:53:36;2.70;;;2.60;;
58342;SDS011;44150;42.602;23.398;2024-02-23T06:56:03;3.28;;;3.08;;
58342;SDS011;44150;42.602;23.398;2024-02-23T06:58:28;2.97;;;2.88;;
58342;SDS011;44150;42.602;23.398;2024-02-23T07:00:54;2.80;;;2.70;;
58342;SDS011;44150;42.602;23.398;2024-02-23T07:03:19;2.97;;;2.88;;
58342;SDS011;44150;42.602;23.398;2024-02-23T07:05:45;3.58;;;3.38;;
58342;SDS011;44150;42.602;23.398;2024-02-23T07:08:11;3.20;;;3.00;;
58342;SDS011;44150;42.602;23.398;2024-02-23T07:10:45;3.40;;;3.30;;
58342;SDS011;44150;42.602;23.398;2024-02-23T07:13:10;3.10;;;3.00;;
58342;SDS011;44150;42.602;23.398;2024-02-23T07:15:35;3.30;;;3.20;;
58342;SDS011;44150;42.602;23.398;2024-02-23T07:18:01;3.35;;;3.25;;
58342;SDS011;44150;42.602;23.398;2024-02-23T07:20:27;3.30;;;3.20;;
58342;SDS011;44150;42.602;23.398;2024-02-23T07:22:52;2.83;;;2.72;;
58342;SDS011;44150;42.602;23.398;2024-02-23T07:25:18;3.38;;;3.28;;
58342;SDS011;44150;42.602;23.398;2024-02-23T07:27:45;3.20;;;3.10;;
58342;SDS011;44150;42.602;23.398;2024-02-23T07:30:11;3.17;;;2.97;;
58342;SDS011;44150;42.602;23.398;2024-02-23T07:32:37;3.25;;;3.15;;
58342;SDS011;44150;42.602;23.398;2024-02-23T07:35:03;3.33;;;3.22;;
58342;SDS011;44150;42.602;23.398;2024-02-23T07:37:29;3.03;;;2.92;;
58342;SDS011;44150;42.602;23.398;2024-02-23T07:39:55;2.80;;;2.70;;
58342;SDS011;44150;42.602;23.398;2024-02-23T07:42:20;3.58;;;3.35;;
58342;SDS011;44150;42.602;23.398;2024-02-23T07:44:46;3.23;;;3.13;;
58342;SDS011;44150;42.602;23.398;2024-02-23T07:47:12;3.00;;;2.85;;
58342;SDS011;44150;42.602;23.398;2024-02-23T07:49:38;2.80;;;2.70;;
58342;SDS011;44150;42.602;23.398;2024-02-23T07:52:05;3.13;;;3.03;;
58342;SDS011;44150;42.602;23.398;2024-02-23T07:54:31;2.70;;;2.63;;
58342;SDS011;44150;42.602;23.398;2024-02-23T07:56:57;3.17;;;3.08;;
58342;SDS011;44150;42.602;23.398;2024-02-23T07:59:23;3.03;;;2.92;;
58342;SDS011;44150;42.602;23.398;2024-02-23T08:01:48;2.90;;;2.80;;
58342;SDS011;44150;42.602;23.398;2024-02-23T08:04:13;3.10;;;3.00;;
58342;SDS011;44150;42.602;23.398;2024-02-23T08:06:39;3.35;;;3.25;;
58342;SDS011;44150;42.602;23.398;2024-02-23T08:09:08;3.05;;;2.95;;
58342;SDS011;44150;42.602;23.398;2024-02-23T08:11:34;3.10;;;3.00;;
58342;SDS011;44150;42.602;23.398;2024-02-23T08:14:00;2.75;;;2.75;;
58342;SDS011;44150;42.602;23.398;2024-02-23T08:16:28;2.90;;;2.80;;
58342;SDS011;44150;42.602;23.398;2024-02-23T08:18:53;3.30;;;3.20;;
58342;SDS011;44150;42.602;23.398;2024-02-23T08:21:19;2.85;;;2.75;;
58342;SDS011;44150;42.602;23.398;2024-02-23T08:23:44;2.97;;;2.88;;
58342;SDS011;44150;42.602;23.398;2024-02-23T08:26:10;3.00;;;2.90;;
58342;SDS011;44150;42.602;23.398;2024-02-23T08:28:35;3.00;;;2.90;;
58342;SDS011;44150;42.602;23.398;2024-02-23T08:31:01;2.90;;;2.80;;
58342;SDS011;44150;42.602;23.398;2024-02-23T08:33:26;3.20;;;3.10;;
58342;SDS011;44150;42.602;23.398;2024-02-23T08:35:52;3.30;;;3.20;;
58342;SDS011;44150;42.602;23.398;2024-02-23T08:38:17;3.10;;;3.00;;
58342;SDS011;44150;42.602;23.398;2024-02-23T08:40:43;2.60;;;2.60;;
58342;SDS011;44150;42.602;23.398;2024-02-23T08:43:10;2.92;;;2.83;;
58342;SDS011;44150;42.602;23.398;2024-02-23T08:45:35;2.80;;;2.70;;
58342;SDS011;44150;42.602;23.398;2024-02-23T08:50:53;2.90;;;2.80;;
58342;SDS011;44150;42.602;23.398;2024-02-23T08:53:18;3.03;;;2.83;;
58342;SDS011;44150;42.602;23.398;2024-02-23T08:55:43;2.70;;;2.70;;
58342;SDS011;44150;42.602;23.398;2024-02-23T08:58:09;2.55;;;2.55;;
58342;SDS011;44150;42.602;23.398;2024-02-23T09:00:34;2.90;;;2.80;;
58342;SDS011;44150;42.602;23.398;2024-02-23T09:03:02;2.85;;;2.75;;
58342;SDS011;44150;42.602;23.398;2024-02-23T09:05:27;2.80;;;2.70;;
58342;SDS011;44150;42.602;23.398;2024-02-23T09:07:53;2.60;;;2.50;;
58342;SDS011;44150;42.602;23.398;2024-02-23T09:10:18;2.70;;;2.50;;
58342;SDS011;44150;42.602;23.398;2024-02-23T09:12:43;2.60;;;2.50;;
58342;SDS011;44150;42.602;23.398;2024-02-23T09:15:09;2.88;;;2.78;;
58342;SDS011;44150;42.602;23.398;2024-02-23T09:17:35;4.10;;;2.85;;
58342;SDS011;44150;42.602;23.398;2024-02-23T09:20:00;2.60;;;2.50;;
58342;SDS011;44150;42.602;23.398;2024-02-23T09:22:25;2.45;;;2.45;;
58342;SDS011;44150;42.602;23.398;2024-02-23T09:24:51;2.80;;;2.70;;
58342;SDS011;44150;42.602;23.398;2024-02-23T09:27:17;2.70;;;2.50;;
58342;SDS011;44150;42.602;23.398;2024-02-23T09:29:42;2.55;;;2.45;;
58342;SDS011;44150;42.602;23.398;2024-02-23T09:32:08;2.30;;;2.30;;
58342;SDS011;44150;42.602;23.398;2024-02-23T09:34:33;2.40;;;2.30;;
58342;SDS011;44150;42.602;23.398;2024-02-23T09:36:59;2.45;;;2.45;;
58342;SDS011;44150;42.602;23.398;2024-02-23T09:39:24;2.53;;;2.42;;
58342;SDS011;44150;42.602;23.398;2024-02-23T09:41:53;2.30;;;2.30;;
58342;SDS011;44150;42.602;23.398;2024-02-23T09:44:22;2.40;;;2.35;;
58342;SDS011;44150;42.602;23.398;2024-02-23T09:46:47;2.08;;;2.08;;
58342;SDS011;44150;42.602;23.398;2024-02-23T09:49:13;2.40;;;2.30;;
58342;SDS011;44150;42.602;23.398;2024-02-23T09:51:42;2.13;;;2.13;;
58342;SDS011;44150;42.602;23.398;2024-02-23T09:54:08;2.45;;;2.35;;
58342;SDS011;44150;42.602;23.398;2024-02-23T09:56:34;2.20;;;2.20;;
58342;SDS011;44150;42.602;23.398;2024-02-23T09:59:02;2.30;;;2.20;;
58342;SDS011;44150;42.602;23.398;2024-02-23T10:01:29;2.28;;;2.28;;
58342;SDS011;44150;42.602;23.398;2024-02-23T10:03:59;1.98;;;1.98;;
58342;SDS011;44150;42.602;23.398;2024-02-23T10:06:26;2.05;;;2.05;;
58342;SDS011;44150;42.602;23.398;2024-02-23T10:08:52;2.03;;;2.03;;
58342;SDS011;44150;42.602;23.398;2024-02-23T10:11:20;2.20;;;2.20;;
58342;SDS011;44150;42.602;23.398;2024-02-23T10:13:49;2.28;;;2.20;;
58342;SDS011;44150;42.602;23.398;2024-02-23T10:16:19;2.10;;;2.10;;
58342;SDS011;44150;42.602;23.398;2024-02-23T10:18:48;2.33;;;2.22;;
58342;SDS011;44150;42.602;23.398;2024-02-23T10:21:14;2.10;;;2.10;;
58342;SDS011;44150;42.602;23.398;2024-02-23T10:23:45;2.53;;;2.42;;
58342;SDS011;44150;42.602;23.398;2024-02-23T10:26:12;2.28;;;2.20;;
58342;SDS011;44150;42.602;23.398;2024-02-23T10:28:38;2.65;;;2.05;;
58342;SDS011;44150;42.602;23.398;2024-02-23T10:31:04;2.00;;;2.00;;
58342;SDS011;44150;42.602;23.398;2024-02-23T10:33:30;2.03;;;2.03;;
58342;SDS011;44150;42.602;23.398;2024-02-23T10:35:59;1.83;;;1.83;;
58342;SDS011;44150;42.602;23.398;2024-02-23T10:38:28;2.13;;;2.03;;
58342;SDS011;44150;42.602;23.398;2024-02-23T10:40:57;1.80;;;1.80;;
58342;SDS011;44150;42.602;23.398;2024-02-23T10:43:28;2.00;;;2.00;;
58342;SDS011;44150;42.602;23.398;2024-02-23T10:45:58;1.90;;;1.90;;
58342;SDS011;44150;42.602;23.398;2024-02-23T10:48:24;1.83;;;1.83;;
58342;SDS011;44150;42.602;23.398;2024-02-23T10:50:51;1.90;;;1.90;;
58342;SDS011;44150;42.602;23.398;2024-02-23T10:53:17;1.70;;;1.70;;
58342;SDS011;44150;42.602;23.398;2024-02-23T10:55:44;1.73;;;1.65;;
58342;SDS011;44150;42.602;23.398;2024-02-23T10:58:10;1.88;;;1.77;;
58342;SDS011;44150;42.602;23.398;2024-02-23T11:00:38;1.60;;;1.60;;
58342;SDS011;44150;42.602;23.398;2024-02-23T11:03:03;1.60;;;1.60;;
58342;SDS011;44150;42.602;23.398;2024-02-23T11:05:31;1.92;;;1.83;;
58342;SDS011;44150;42.602;23.398;2024-02-23T11:07:58;1.60;;;1.60;;
58342;SDS011;44150;42.602;23.398;2024-02-23T11:10:24;1.73;;;1.63;;
58342;SDS011;44150;42.602;23.398;2024-02-23T11:12:59;1.83;;;1.73;;
58342;SDS011;44150;42.602;23.398;2024-02-23T11:15:25;1.80;;;1.80;;
58342;SDS011;44150;42.602;23.398;2024-02-23T11:17:52;1.70;;;1.70;;
58342;SDS011;44150;42.602;23.398;2024-02-23T11:20:17;1.63;;;1.63;;
58342;SDS011;44150;42.602;23.398;2024-02-23T11:22:43;1.83;;;1.80;;
58342;SDS011;44150;42.602;23.398;2024-02-23T11:25:08;1.52;;;1.52;;
58342;SDS011;44150;42.602;23.398;2024-02-23T11:27:35;1.65;;;1.65;;
58342;SDS011;44150;42.602;23.398;2024-02-23T11:30:06;1.52;;;1.52;;
58342;SDS011;44150;42.602;23.398;2024-02-23T11:35:19;1.45;;;1.45;;
58342;SDS011;44150;42.602;23.398;2024-02-23T11:37:45;1.40;;;1.40;;
58342;SDS011;44150;42.602;23.398;2024-02-23T11:40:14;1.13;;;1.13;;
58342;SDS011;44150;42.602;23.398;2024-02-23T11:42:42;1.63;;;1.63;;
58342;SDS011;44150;42.602;23.398;2024-02-23T11:45:08;1.40;;;1.40;;
58342;SDS011;44150;42.602;23.398;2024-02-23T11:47:36;1.33;;;1.33;;
58342;SDS011;44150;42.602;23.398;2024-02-23T11:50:01;2.10;;;1.88;;
58342;SDS011;44150;42.602;23.398;2024-02-23T11:52:27;1.38;;;1.38;;
58342;SDS011;44150;42.602;23.398;2024-02-23T11:54:53;1.17;;;1.17;;
58342;SDS011;44150;42.602;23.398;2024-02-23T11:57:18;1.30;;;1.30;;
58342;SDS011;44150;42.602;23.398;2024-02-23T11:59:43;1.50;;;1.40;;
58342;SDS011;44150;42.602;23.398;2024-02-23T12:02:09;1.45;;;1.35;;
58342;SDS011;44150;42.602;23.398;2024-02-23T12:04:34;1.48;;;1.38;;
58342;SDS011;44150;42.602;23.398;2024-02-23T12:07:02;1.23;;;1.23;;
58342;SDS011;44150;42.602;23.398;2024-02-23T12:09:28;1.10;;;1.10;;
58342;SDS011;44150;42.602;23.398;2024-02-23T12:11:54;1.40;;;1.40;;
58342;SDS011;44150;42.602;23.398;2024-02-23T12:14:19;1.30;;;1.30;;
58342;SDS011;44150;42.602;23.398;2024-02-23T12:16:45;1.30;;;1.30;;
58342;SDS011;44150;42.602;23.398;2024-02-23T12:19:10;1.23;;;1.23;;
58342;SDS011;44150;42.602;23.398;2024-02-23T12:21:35;1.42;;;1.42;;
58342;SDS011;44150;42.602;23.398;2024-02-23T12:24:03;1.38;;;1.38;;
58342;SDS011;44150;42.602;23.398;2024-02-23T12:26:29;1.50;;;1.40;;
58342;SDS011;44150;42.602;23.398;2024-02-23T12:28:59;1.30;;;1.30;;
58342;SDS011;44150;42.602;23.398;2024-02-23T12:31:26;1.20;;;1.20;;
58342;SDS011;44150;42.602;23.398;2024-02-23T12:33:53;1.30;;;1.30;;
58342;SDS011;44150;42.602;23.398;2024-02-23T12:36:21;1.50;;;1.50;;
58342;SDS011;44150;42.602;23.398;2024-02-23T12:38:47;1.25;;;1.25;;
58342;SDS011;44150;42.602;23.398;2024-02-23T12:41:13;1.42;;;1.42;;
58342;SDS011;44150;42.602;23.398;2024-02-23T12:43:38;1.00;;;1.00;;
58342;SDS011;44150;42.602;23.398;2024-02-23T12:46:04;1.00;;;1.00;;
58342;SDS011;44150;42.602;23.398;2024-02-23T12:48:29;1.05;;;1.05;;
58342;SDS011;44150;42.602;23.398;2024-02-23T12:50:54;1.30;;;1.30;;
58342;SDS011;44150;42.602;23.398;2024-02-23T12:53:33;1.20;;;1.10;;
58342;SDS011;44150;42.602;23.398;2024-02-23T12:56:04;1.40;;;1.30;;
58342;SDS011;44150;42.602;23.398;2024-02-23T12:58:39;1.10;;;1.10;;
58342;SDS011;44150;42.602;23.398;2024-02-23T13:01:05;1.30;;;1.30;;
58342;SDS011;44150;42.602;23.398;2024-02-23T13:03:31;0.95;;;0.95;;
58342;SDS011;44150;42.602;23.398;2024-02-23T13:05:57;1.25;;;1.25;;
58342;SDS011;44150;42.602;23.398;2024-02-23T13:08:23;1.08;;;1.08;;
58342;SDS011;44150;42.602;23.398;2024-02-23T13:10:50;1.05;;;1.05;;
58342;SDS011;44150;42.602;23.398;2024-02-23T13:13:16;1.20;;;1.20;;
58342;SDS011;44150;42.602;23.398;2024-02-23T13:15:42;1.20;;;1.20;;
58342;SDS011;44150;42.602;23.398;2024-02-23T13:18:08;1.30;;;1.30;;
58342;SDS011;44150;42.602;23.398;2024-02-23T13:20:34;3.85;;;1.58;;
58342;SDS011;44150;42.602;23.398;2024-02-23T13:23:00;1.10;;;1.10;;
58342;SDS011;44150;42.602;23.398;2024-02-23T13:25:26;1.13;;;1.13;;
58342;SDS011;44150;42.602;23.398;2024-02-23T13:27:52;1.33;;;1.15;;
58342;SDS011;44150;42.602;23.398;2024-02-23T13:30:17;0.88;;;0.88;;
58342;SDS011;44150;42.602;23.398;2024-02-23T13:32:43;1.00;;;1.00;;
58342;SDS011;44150;42.602;23.398;2024-02-23T13:35:08;0.98;;;0.98;;
58342;SDS011;44150;42.602;23.398;2024-02-23T13:37:34;1.10;;;1.10;;
58342;SDS011;44150;42.602;23.398;2024-02-23T13:39:59;0.90;;;0.90;;
58342;SDS011;44150;42.602;23.398;2024-02-23T13:42:25;1.05;;;1.05;;
58342;SDS011;44150;42.602;23.398;2024-02-23T13:44:51;0.80;;;0.80;;
58342;SDS011;44150;42.602;23.398;2024-02-23T13:47:16;1.10;;;1.08;;
58342;SDS011;44150;42.602;23.398;2024-02-23T13:49:42;0.90;;;0.90;;
58342;SDS011;44150;42.602;23.398;2024-02-23T13:52:07;1.08;;;1.02;;
58342;SDS011;44150;42.602;23.398;2024-02-23T13:54:35;0.85;;;0.85;;
58342;SDS011;44150;42.602;23.398;2024-02-23T13:57:00;0.90;;;0.90;;
58342;SDS011;44150;42.602;23.398;2024-02-23T13:59:26;1.10;;;1.10;;
58342;SDS011;44150;42.602;23.398;2024-02-23T14:01:51;0.80;;;0.80;;
58342;SDS011;44150;42.602;23.398;2024-02-23T14:04:18;1.05;;;1.05;;
58342;SDS011;44150;42.602;23.398;2024-02-23T14:06:43;0.95;;;0.95;;
58342;SDS011;44150;42.602;23.398;2024-02-23T14:09:09;0.80;;;0.80;;
58342;SDS011;44150;42.602;23.398;2024-02-23T14:11:34;0.95;;;0.95;;
58342;SDS011;44150;42.602;23.398;2024-02-23T14:14:00;0.80;;;0.80;;
58342;SDS011;44150;42.602;23.398;2024-02-23T14:16:27;1.00;;;1.00;;
58342;SDS011;44150;42.602;23.398;2024-02-23T14:18:56;0.82;;;0.82;;
58342;SDS011;44150;42.602;23.398;2024-02-23T14:21:21;0.90;;;0.90;;
58342;SDS011;44150;42.602;23.398;2024-02-23T14:23:47;0.90;;;0.90;;
58342;SDS011;44150;42.602;23.398;2024-02-23T14:26:16;0.77;;;0.77;;
58342;SDS011;44150;42.602;23.398;2024-02-23T14:28:41;0.98;;;0.98;;
58342;SDS011;44150;42.602;23.398;2024-02-23T14:31:06;0.80;;;0.80;;
58342;SDS011;44150;42.602;23.398;2024-02-23T14:33:32;1.38;;;0.90;;